sensor_id;sensor_type;location;lat;lon;timestamp;temperature;humidity
56512;DHT22;42408;53.238;5.686;2023-11-22T00:00:52;4.40;99.90
56512;DHT22;42408;53.238;5.686;2023-11-22T00:03:18;4.40;99.90
56512;DHT22;42408;53.238;5.686;2023-11-22T00:05:44;4.30;99.90
56512;DHT22;42408;53.238;5.686;2023-11-22T00:08:10;4.30;99.90
56512;DHT22;42408;53.238;5.686;2023-11-22T00:10:35;4.30;99.90
56512;DHT22;42408;53.238;5.686;2023-11-22T00:13:01;4.30;99.90
56512;DHT22;42408;53.238;5.686;2023-11-22T00:15:27;4.30;99.90
56512;DHT22;42408;53.238;5.686;2023-11-22T00:17:52;4.20;99.90
56512;DHT22;42408;53.238;5.686;2023-11-22T00:20:18;4.20;99.90
56512;DHT22;42408;53.238;5.686;2023-11-22T00:22:46;4.10;99.90
56512;DHT22;42408;53.238;5.686;2023-11-22T00:25:12;4.20;99.90
56512;DHT22;42408;53.238;5.686;2023-11-22T00:27:39;4.10;99.90
56512;DHT22;42408;53.238;5.686;2023-11-22T00:30:05;4.10;99.90
56512;DHT22;42408;53.238;5.686;2023-11-22T00:32:31;4.10;99.90
56512;DHT22;42408;53.238;5.686;2023-11-22T00:34:56;4.10;99.90
56512;DHT22;42408;53.238;5.686;2023-11-22T00:37:23;4.10;99.90
56512;DHT22;42408;53.238;5.686;2023-11-22T00:39:48;4.10;99.90
56512;DHT22;42408;53.238;5.686;2023-11-22T00:42:14;4.10;99.90
56512;DHT22;42408;53.238;5.686;2023-11-22T00:44:39;4.00;99.90
56512;DHT22;42408;53.238;5.686;2023-11-22T00:47:05;4.00;99.90
56512;DHT22;42408;53.238;5.686;2023-11-22T00:49:31;4.00;99.90
56512;DHT22;42408;53.238;5.686;2023-11-22T00:51:58;4.00;99.90
56512;DHT22;42408;53.238;5.686;2023-11-22T00:54:24;4.00;99.90
56512;DHT22;42408;53.238;5.686;2023-11-22T00:56:51;4.00;99.90
56512;DHT22;42408;53.238;5.686;2023-11-22T00:59:17;4.00;99.90
56512;DHT22;42408;53.238;5.686;2023-11-22T01:01:45;4.00;99.90
56512;DHT22;42408;53.238;5.686;2023-11-22T01:04:10;4.00;99.90
56512;DHT22;42408;53.238;5.686;2023-11-22T01:06:36;4.00;99.90
56512;DHT22;42408;53.238;5.686;2023-11-22T01:09:02;4.00;99.90
56512;DHT22;42408;53.238;5.686;2023-11-22T01:11:29;4.00;99.90
56512;DHT22;42408;53.238;5.686;2023-11-22T01:13:55;4.00;99.90
56512;DHT22;42408;53.238;5.686;2023-11-22T01:16:20;4.00;99.90
56512;DHT22;42408;53.238;5.686;2023-11-22T01:18:47;4.00;99.90
56512;DHT22;42408;53.238;5.686;2023-11-22T01:21:12;4.00;99.90
56512;DHT22;42408;53.238;5.686;2023-11-22T01:23:38;4.00;99.90
56512;DHT22;42408;53.238;5.686;2023-11-22T01:26:04;4.00;99.90
56512;DHT22;42408;53.238;5.686;2023-11-22T01:28:31;4.00;99.90
56512;DHT22;42408;53.238;5.686;2023-11-22T01:31:00;4.00;99.90
56512;DHT22;42408;53.238;5.686;2023-11-22T01:33:26;4.00;99.90
56512;DHT22;42408;53.238;5.686;2023-11-22T01:35:52;4.00;99.90
56512;DHT22;42408;53.238;5.686;2023-11-22T01:38:18;4.00;99.90
56512;DHT22;42408;53.238;5.686;2023-11-22T01:40:44;4.00;99.90
56512;DHT22;42408;53.238;5.686;2023-11-22T01:43:18;4.00;99.90
56512;DHT22;42408;53.238;5.686;2023-11-22T01:45:44;4.00;99.90
56512;DHT22;42408;53.238;5.686;2023-11-22T01:48:11;4.00;99.90
56512;DHT22;42408;53.238;5.686;2023-11-22T01:50:40;4.00;99.90
56512;DHT22;42408;53.238;5.686;2023-11-22T01:53:11;4.10;99.90
56512;DHT22;42408;53.238;5.686;2023-11-22T01:55:39;4.10;99.90
56512;DHT22;42408;53.238;5.686;2023-11-22T01:58:06;4.10;99.90
56512;DHT22;42408;53.238;5.686;2023-11-22T02:00:52;4.10;99.90
56512;DHT22;42408;53.238;5.686;2023-11-22T02:03:18;4.20;99.90
56512;DHT22;42408;53.238;5.686;2023-11-22T02:05:44;4.20;99.90
56512;DHT22;42408;53.238;5.686;2023-11-22T02:08:11;4.20;99.90
56512;DHT22;42408;53.238;5.686;2023-11-22T02:10:37;4.20;99.90
56512;DHT22;42408;53.238;5.686;2023-11-22T02:13:04;4.20;99.90
56512;DHT22;42408;53.238;5.686;2023-11-22T02:15:31;4.20;99.90
56512;DHT22;42408;53.238;5.686;2023-11-22T02:17:57;4.30;99.90
56512;DHT22;42408;53.238;5.686;2023-11-22T02:20:23;4.30;99.90
56512;DHT22;42408;53.238;5.686;2023-11-22T02:22:48;4.30;99.90
56512;DHT22;42408;53.238;5.686;2023-11-22T02:25:15;4.30;99.90
56512;DHT22;42408;53.238;5.686;2023-11-22T02:27:41;4.20;99.90
56512;DHT22;42408;53.238;5.686;2023-11-22T02:30:08;4.20;99.90
56512;DHT22;42408;53.238;5.686;2023-11-22T02:32:34;4.20;99.90
56512;DHT22;42408;53.238;5.686;2023-11-22T02:34:59;4.10;99.90
56512;DHT22;42408;53.238;5.686;2023-11-22T02:37:26;5.40;99.90
56512;DHT22;42408;53.238;5.686;2023-11-22T02:40:05;4.10;99.90
56512;DHT22;42408;53.238;5.686;2023-11-22T02:42:31;4.10;99.90
56512;DHT22;42408;53.238;5.686;2023-11-22T02:44:57;4.00;99.90
56512;DHT22;42408;53.238;5.686;2023-11-22T02:47:23;4.00;99.90
56512;DHT22;42408;53.238;5.686;2023-11-22T02:49:49;4.00;99.90
56512;DHT22;42408;53.238;5.686;2023-11-22T02:52:15;4.00;99.90
56512;DHT22;42408;53.238;5.686;2023-11-22T02:54:44;4.00;99.90
56512;DHT22;42408;53.238;5.686;2023-11-22T02:57:11;4.00;99.90
56512;DHT22;42408;53.238;5.686;2023-11-22T02:59:40;3.90;99.90
56512;DHT22;42408;53.238;5.686;2023-11-22T03:02:07;3.90;99.90
56512;DHT22;42408;53.238;5.686;2023-11-22T03:04:32;3.90;99.90
56512;DHT22;42408;53.238;5.686;2023-11-22T03:06:59;3.90;99.90
56512;DHT22;42408;53.238;5.686;2023-11-22T03:09:25;3.90;99.90
56512;DHT22;42408;53.238;5.686;2023-11-22T03:11:53;3.90;99.90
56512;DHT22;42408;53.238;5.686;2023-11-22T03:14:18;3.90;99.90
56512;DHT22;42408;53.238;5.686;2023-11-22T03:16:45;3.90;99.90
56512;DHT22;42408;53.238;5.686;2023-11-22T03:19:11;3.90;99.90
56512;DHT22;42408;53.238;5.686;2023-11-22T03:21:39;3.90;99.90
56512;DHT22;42408;53.238;5.686;2023-11-22T03:24:07;3.90;99.90
56512;DHT22;42408;53.238;5.686;2023-11-22T03:26:34;3.80;99.90
56512;DHT22;42408;53.238;5.686;2023-11-22T03:29:00;3.80;99.90
56512;DHT22;42408;53.238;5.686;2023-11-22T03:31:29;3.80;99.90
56512;DHT22;42408;53.238;5.686;2023-11-22T03:33:56;3.80;99.90
56512;DHT22;42408;53.238;5.686;2023-11-22T03:36:22;3.80;99.90
56512;DHT22;42408;53.238;5.686;2023-11-22T03:38:48;3.80;99.90
56512;DHT22;42408;53.238;5.686;2023-11-22T03:41:14;3.80;99.90
56512;DHT22;42408;53.238;5.686;2023-11-22T03:43:40;3.80;99.90
56512;DHT22;42408;53.238;5.686;2023-11-22T03:46:05;3.80;99.90
56512;DHT22;42408;53.238;5.686;2023-11-22T03:48:31;3.80;99.90
56512;DHT22;42408;53.238;5.686;2023-11-22T03:50:57;3.80;99.90
56512;DHT22;42408;53.238;5.686;2023-11-22T03:53:22;3.80;99.90
56512;DHT22;42408;53.238;5.686;2023-11-22T03:55:52;3.80;99.90
56512;DHT22;42408;53.238;5.686;2023-11-22T03:58:18;3.80;99.90
56512;DHT22;42408;53.238;5.686;2023-11-22T04:00:44;3.80;99.90
56512;DHT22;42408;53.238;5.686;2023-11-22T04:03:09;3.80;99.90
56512;DHT22;42408;53.238;5.686;2023-11-22T04:05:35;3.70;99.90
56512;DHT22;42408;53.238;5.686;2023-11-22T04:08:01;3.80;99.90
56512;DHT22;42408;53.238;5.686;2023-11-22T04:10:26;3.70;99.90
56512;DHT22;42408;53.238;5.686;2023-11-22T04:12:52;3.70;99.90
56512;DHT22;42408;53.238;5.686;2023-11-22T04:15:18;3.70;99.90
56512;DHT22;42408;53.238;5.686;2023-11-22T04:17:43;3.80;99.90
56512;DHT22;42408;53.238;5.686;2023-11-22T04:20:09;3.80;99.90
56512;DHT22;42408;53.238;5.686;2023-11-22T04:22:39;3.80;99.90
56512;DHT22;42408;53.238;5.686;2023-11-22T04:25:05;3.80;99.90
56512;DHT22;42408;53.238;5.686;2023-11-22T04:27:32;3.80;99.90
56512;DHT22;42408;53.238;5.686;2023-11-22T04:29:58;4.30;99.90
56512;DHT22;42408;53.238;5.686;2023-11-22T04:32:23;3.90;99.90
56512;DHT22;42408;53.238;5.686;2023-11-22T04:34:49;3.90;99.90
56512;DHT22;42408;53.238;5.686;2023-11-22T04:37:15;3.90;99.90
56512;DHT22;42408;53.238;5.686;2023-11-22T04:39:40;3.90;99.90
56512;DHT22;42408;53.238;5.686;2023-11-22T04:42:06;3.90;99.90
56512;DHT22;42408;53.238;5.686;2023-11-22T04:44:31;3.90;99.90
56512;DHT22;42408;53.238;5.686;2023-11-22T04:46:58;3.90;99.90
56512;DHT22;42408;53.238;5.686;2023-11-22T04:49:25;3.90;99.90
56512;DHT22;42408;53.238;5.686;2023-11-22T04:51:51;3.90;99.90
56512;DHT22;42408;53.238;5.686;2023-11-22T04:54:16;3.90;99.90
56512;DHT22;42408;53.238;5.686;2023-11-22T04:56:42;4.00;99.90
56512;DHT22;42408;53.238;5.686;2023-11-22T04:59:08;4.00;99.90
56512;DHT22;42408;53.238;5.686;2023-11-22T05:01:34;4.00;99.90
56512;DHT22;42408;53.238;5.686;2023-11-22T05:04:00;4.00;99.90
56512;DHT22;42408;53.238;5.686;2023-11-22T05:06:26;4.00;99.90
56512;DHT22;42408;53.238;5.686;2023-11-22T05:08:52;4.00;99.90
56512;DHT22;42408;53.238;5.686;2023-11-22T05:11:19;4.00;99.90
56512;DHT22;42408;53.238;5.686;2023-11-22T05:13:44;4.00;99.90
56512;DHT22;42408;53.238;5.686;2023-11-22T05:16:10;4.00;99.90
56512;DHT22;42408;53.238;5.686;2023-11-22T05:18:36;4.00;99.90
56512;DHT22;42408;53.238;5.686;2023-11-22T05:21:02;4.00;99.90
56512;DHT22;42408;53.238;5.686;2023-11-22T05:23:31;4.00;99.90
56512;DHT22;42408;53.238;5.686;2023-11-22T05:25:59;4.00;99.90
56512;DHT22;42408;53.238;5.686;2023-11-22T05:28:29;4.00;99.90
56512;DHT22;42408;53.238;5.686;2023-11-22T05:30:54;4.00;99.90
56512;DHT22;42408;53.238;5.686;2023-11-22T05:33:20;4.00;99.90
56512;DHT22;42408;53.238;5.686;2023-11-22T05:35:46;4.00;99.90
56512;DHT22;42408;53.238;5.686;2023-11-22T05:38:11;4.00;99.90
56512;DHT22;42408;53.238;5.686;2023-11-22T05:40:37;4.00;99.90
56512;DHT22;42408;53.238;5.686;2023-11-22T05:43:04;4.00;99.90
56512;DHT22;42408;53.238;5.686;2023-11-22T05:45:30;4.00;99.90
56512;DHT22;42408;53.238;5.686;2023-11-22T05:47:55;4.00;99.90
56512;DHT22;42408;53.238;5.686;2023-11-22T05:50:21;4.00;99.90
56512;DHT22;42408;53.238;5.686;2023-11-22T05:52:46;4.00;99.90
56512;DHT22;42408;53.238;5.686;2023-11-22T05:55:12;4.00;99.90
56512;DHT22;42408;53.238;5.686;2023-11-22T05:57:40;4.00;99.90
56512;DHT22;42408;53.238;5.686;2023-11-22T06:00:06;4.00;99.90
56512;DHT22;42408;53.238;5.686;2023-11-22T06:02:32;4.00;99.90
56512;DHT22;42408;53.238;5.686;2023-11-22T06:04:58;4.00;99.90
56512;DHT22;42408;53.238;5.686;2023-11-22T06:07:23;4.00;99.90
56512;DHT22;42408;53.238;5.686;2023-11-22T06:09:49;4.00;99.90
56512;DHT22;42408;53.238;5.686;2023-11-22T06:12:14;4.00;99.90
56512;DHT22;42408;53.238;5.686;2023-11-22T06:14:40;4.00;99.90
56512;DHT22;42408;53.238;5.686;2023-11-22T06:17:06;4.00;99.90
56512;DHT22;42408;53.238;5.686;2023-11-22T06:19:31;4.00;99.90
56512;DHT22;42408;53.238;5.686;2023-11-22T06:21:57;4.00;99.90
56512;DHT22;42408;53.238;5.686;2023-11-22T06:24:22;4.00;99.90
56512;DHT22;42408;53.238;5.686;2023-11-22T06:26:48;3.90;99.90
56512;DHT22;42408;53.238;5.686;2023-11-22T06:29:15;3.90;99.90
56512;DHT22;42408;53.238;5.686;2023-11-22T06:31:41;3.90;99.90
56512;DHT22;42408;53.238;5.686;2023-11-22T06:34:06;3.90;99.90
56512;DHT22;42408;53.238;5.686;2023-11-22T06:36:32;3.90;99.90
56512;DHT22;42408;53.238;5.686;2023-11-22T06:38:58;3.80;99.90
56512;DHT22;42408;53.238;5.686;2023-11-22T06:41:24;3.80;99.90
56512;DHT22;42408;53.238;5.686;2023-11-22T06:43:49;3.80;99.90
56512;DHT22;42408;53.238;5.686;2023-11-22T06:46:15;3.80;99.90
56512;DHT22;42408;53.238;5.686;2023-11-22T06:48:42;3.80;99.90
56512;DHT22;42408;53.238;5.686;2023-11-22T06:51:09;3.90;99.90
56512;DHT22;42408;53.238;5.686;2023-11-22T06:53:35;3.80;99.90
56512;DHT22;42408;53.238;5.686;2023-11-22T06:56:01;3.80;99.90
56512;DHT22;42408;53.238;5.686;2023-11-22T06:58:27;3.80;99.90
56512;DHT22;42408;53.238;5.686;2023-11-22T07:00:52;3.80;99.90
56512;DHT22;42408;53.238;5.686;2023-11-22T07:03:18;3.80;99.90
56512;DHT22;42408;53.238;5.686;2023-11-22T07:05:44;3.70;99.90
56512;DHT22;42408;53.238;5.686;2023-11-22T07:08:09;3.70;99.90
56512;DHT22;42408;53.238;5.686;2023-11-22T07:10:39;3.80;99.90
56512;DHT22;42408;53.238;5.686;2023-11-22T07:13:04;3.80;99.90
56512;DHT22;42408;53.238;5.686;2023-11-22T07:15:30;3.80;99.90
56512;DHT22;42408;53.238;5.686;2023-11-22T07:17:56;3.80;99.90
56512;DHT22;42408;53.238;5.686;2023-11-22T07:20:21;3.80;99.90
56512;DHT22;42408;53.238;5.686;2023-11-22T07:22:49;3.80;99.90
56512;DHT22;42408;53.238;5.686;2023-11-22T07:25:20;3.80;99.90
56512;DHT22;42408;53.238;5.686;2023-11-22T07:27:50;3.80;99.90
56512;DHT22;42408;53.238;5.686;2023-11-22T07:30:16;3.80;99.90
56512;DHT22;42408;53.238;5.686;2023-11-22T07:32:45;3.80;99.90
56512;DHT22;42408;53.238;5.686;2023-11-22T07:35:10;3.80;99.90
56512;DHT22;42408;53.238;5.686;2023-11-22T07:37:37;3.80;99.90
56512;DHT22;42408;53.238;5.686;2023-11-22T07:40:08;3.80;99.90
56512;DHT22;42408;53.238;5.686;2023-11-22T07:42:38;3.80;99.90
56512;DHT22;42408;53.238;5.686;2023-11-22T07:45:04;3.80;99.90
56512;DHT22;42408;53.238;5.686;2023-11-22T07:47:30;3.80;99.90
56512;DHT22;42408;53.238;5.686;2023-11-22T07:49:56;3.80;99.90
56512;DHT22;42408;53.238;5.686;2023-11-22T07:52:23;3.80;99.90
56512;DHT22;42408;53.238;5.686;2023-11-22T07:54:55;3.90;99.90
56512;DHT22;42408;53.238;5.686;2023-11-22T07:57:22;3.90;99.90
56512;DHT22;42408;53.238;5.686;2023-11-22T07:59:49;3.90;99.90
56512;DHT22;42408;53.238;5.686;2023-11-22T08:02:15;3.90;99.90
56512;DHT22;42408;53.238;5.686;2023-11-22T08:04:44;3.90;99.90
56512;DHT22;42408;53.238;5.686;2023-11-22T08:07:10;4.00;99.90
56512;DHT22;42408;53.238;5.686;2023-11-22T08:09:43;4.00;99.90
56512;DHT22;42408;53.238;5.686;2023-11-22T08:12:09;4.00;99.90
56512;DHT22;42408;53.238;5.686;2023-11-22T08:14:37;4.00;99.90
56512;DHT22;42408;53.238;5.686;2023-11-22T08:17:03;4.10;99.90
56512;DHT22;42408;53.238;5.686;2023-11-22T08:19:29;4.10;99.90
56512;DHT22;42408;53.238;5.686;2023-11-22T08:21:55;4.10;99.90
56512;DHT22;42408;53.238;5.686;2023-11-22T08:24:21;4.10;99.90
56512;DHT22;42408;53.238;5.686;2023-11-22T08:26:46;4.10;99.90
56512;DHT22;42408;53.238;5.686;2023-11-22T08:29:12;4.20;99.90
56512;DHT22;42408;53.238;5.686;2023-11-22T08:31:37;4.10;99.90
56512;DHT22;42408;53.238;5.686;2023-11-22T08:34:03;4.20;99.90
56512;DHT22;42408;53.238;5.686;2023-11-22T08:36:34;4.20;99.90
56512;DHT22;42408;53.238;5.686;2023-11-22T08:39:01;4.20;99.90
56512;DHT22;42408;53.238;5.686;2023-11-22T08:41:28;4.30;99.90
56512;DHT22;42408;53.238;5.686;2023-11-22T08:43:55;4.30;99.90
56512;DHT22;42408;53.238;5.686;2023-11-22T08:46:21;4.30;99.90
56512;DHT22;42408;53.238;5.686;2023-11-22T08:48:47;4.30;99.90
56512;DHT22;42408;53.238;5.686;2023-11-22T08:51:13;4.30;99.90
56512;DHT22;42408;53.238;5.686;2023-11-22T08:53:38;4.40;99.90
56512;DHT22;42408;53.238;5.686;2023-11-22T08:56:04;4.40;99.90
56512;DHT22;42408;53.238;5.686;2023-11-22T08:58:31;4.40;99.90
56512;DHT22;42408;53.238;5.686;2023-11-22T09:00:57;4.40;99.90
56512;DHT22;42408;53.238;5.686;2023-11-22T09:03:24;4.40;99.90
56512;DHT22;42408;53.238;5.686;2023-11-22T09:05:49;4.50;99.90
56512;DHT22;42408;53.238;5.686;2023-11-22T09:08:15;4.50;99.90
56512;DHT22;42408;53.238;5.686;2023-11-22T09:10:43;4.50;99.90
56512;DHT22;42408;53.238;5.686;2023-11-22T09:13:10;4.50;99.90
56512;DHT22;42408;53.238;5.686;2023-11-22T09:15:36;4.50;99.90
56512;DHT22;42408;53.238;5.686;2023-11-22T09:18:04;4.50;99.90
56512;DHT22;42408;53.238;5.686;2023-11-22T09:20:30;4.60;99.90
56512;DHT22;42408;53.238;5.686;2023-11-22T09:22:56;4.60;99.90
56512;DHT22;42408;53.238;5.686;2023-11-22T09:25:23;4.70;99.90
56512;DHT22;42408;53.238;5.686;2023-11-22T09:27:55;4.60;99.90
56512;DHT22;42408;53.238;5.686;2023-11-22T09:30:24;5.10;99.90
56512;DHT22;42408;53.238;5.686;2023-11-22T09:33:10;4.70;99.90
56512;DHT22;42408;53.238;5.686;2023-11-22T09:35:38;4.70;99.90
56512;DHT22;42408;53.238;5.686;2023-11-22T09:38:06;4.80;99.90
56512;DHT22;42408;53.238;5.686;2023-11-22T09:40:35;4.80;99.90
56512;DHT22;42408;53.238;5.686;2023-11-22T09:43:02;4.80;99.90
56512;DHT22;42408;53.238;5.686;2023-11-22T09:45:29;4.90;99.90
56512;DHT22;42408;53.238;5.686;2023-11-22T09:47:55;4.90;99.90
56512;DHT22;42408;53.238;5.686;2023-11-22T09:53:02;5.00;99.90
56512;DHT22;42408;53.238;5.686;2023-11-22T09:55:30;5.00;99.90
56512;DHT22;42408;53.238;5.686;2023-11-22T09:57:59;5.10;99.90
56512;DHT22;42408;53.238;5.686;2023-11-22T10:00:29;5.10;99.90
56512;DHT22;42408;53.238;5.686;2023-11-22T10:02:56;5.10;99.90
56512;DHT22;42408;53.238;5.686;2023-11-22T10:05:23;5.20;99.90
56512;DHT22;42408;53.238;5.686;2023-11-22T10:07:49;5.20;99.90
56512;DHT22;42408;53.238;5.686;2023-11-22T10:10:15;5.30;99.90
56512;DHT22;42408;53.238;5.686;2023-11-22T10:12:44;5.30;99.90
56512;DHT22;42408;53.238;5.686;2023-11-22T10:15:17;5.40;99.90
56512;DHT22;42408;53.238;5.686;2023-11-22T10:18:02;5.40;99.90
56512;DHT22;42408;53.238;5.686;2023-11-22T10:20:39;5.50;99.90
56512;DHT22;42408;53.238;5.686;2023-11-22T10:23:11;6.20;99.90
56512;DHT22;42408;53.238;5.686;2023-11-22T10:25:47;5.60;99.90
56512;DHT22;42408;53.238;5.686;2023-11-22T10:28:15;5.60;99.90
56512;DHT22;42408;53.238;5.686;2023-11-22T10:30:45;5.70;99.90
56512;DHT22;42408;53.238;5.686;2023-11-22T10:33:10;5.70;99.90
56512;DHT22;42408;53.238;5.686;2023-11-22T10:35:43;5.80;99.90
56512;DHT22;42408;53.238;5.686;2023-11-22T10:38:09;5.90;99.90
56512;DHT22;42408;53.238;5.686;2023-11-22T10:40:37;5.90;99.90
56512;DHT22;42408;53.238;5.686;2023-11-22T10:43:03;5.90;99.90
56512;DHT22;42408;53.238;5.686;2023-11-22T10:45:30;6.00;99.90
56512;DHT22;42408;53.238;5.686;2023-11-22T10:48:00;6.00;99.90
56512;DHT22;42408;53.238;5.686;2023-11-22T10:50:26;6.10;99.90
56512;DHT22;42408;53.238;5.686;2023-11-22T10:52:57;6.10;99.90
56512;DHT22;42408;53.238;5.686;2023-11-22T10:55:27;6.10;99.90
56512;DHT22;42408;53.238;5.686;2023-11-22T10:57:56;6.10;99.90
56512;DHT22;42408;53.238;5.686;2023-11-22T11:00:24;6.10;99.90
56512;DHT22;42408;53.238;5.686;2023-11-22T11:02:59;6.20;99.90
56512;DHT22;42408;53.238;5.686;2023-11-22T11:05:31;6.20;99.90
56512;DHT22;42408;53.238;5.686;2023-11-22T11:08:11;6.20;99.90
56512;DHT22;42408;53.238;5.686;2023-11-22T11:10:43;6.30;99.90
56512;DHT22;42408;53.238;5.686;2023-11-22T11:13:09;6.30;99.90
56512;DHT22;42408;53.238;5.686;2023-11-22T11:15:39;6.40;99.90
56512;DHT22;42408;53.238;5.686;2023-11-22T11:18:06;6.40;99.90
56512;DHT22;42408;53.238;5.686;2023-11-22T11:20:44;6.40;99.90
56512;DHT22;42408;53.238;5.686;2023-11-22T11:23:24;6.50;99.90
56512;DHT22;42408;53.238;5.686;2023-11-22T11:25:56;6.50;99.90
56512;DHT22;42408;53.238;5.686;2023-11-22T11:28:23;6.50;99.90
56512;DHT22;42408;53.238;5.686;2023-11-22T11:30:52;6.60;99.90
56512;DHT22;42408;53.238;5.686;2023-11-22T11:33:34;6.60;99.90
56512;DHT22;42408;53.238;5.686;2023-11-22T11:36:02;7.10;99.90
56512;DHT22;42408;53.238;5.686;2023-11-22T11:38:35;6.70;99.90
56512;DHT22;42408;53.238;5.686;2023-11-22T11:41:11;6.80;99.90
56512;DHT22;42408;53.238;5.686;2023-11-22T11:43:42;6.90;99.90
56512;DHT22;42408;53.238;5.686;2023-11-22T11:46:09;6.80;99.90
56512;DHT22;42408;53.238;5.686;2023-11-22T11:48:35;6.90;99.90
56512;DHT22;42408;53.238;5.686;2023-11-22T11:51:01;6.90;99.90
56512;DHT22;42408;53.238;5.686;2023-11-22T11:53:27;6.90;99.90
56512;DHT22;42408;53.238;5.686;2023-11-22T11:55:54;6.90;99.90
56512;DHT22;42408;53.238;5.686;2023-11-22T11:58:19;6.90;99.90
56512;DHT22;42408;53.238;5.686;2023-11-22T12:00:45;7.00;99.90
56512;DHT22;42408;53.238;5.686;2023-11-22T12:03:11;6.90;99.90
56512;DHT22;42408;53.238;5.686;2023-11-22T12:05:40;6.90;99.90
56512;DHT22;42408;53.238;5.686;2023-11-22T12:08:06;6.80;99.90
56512;DHT22;42408;53.238;5.686;2023-11-22T12:10:32;6.80;99.90
56512;DHT22;42408;53.238;5.686;2023-11-22T12:12:58;6.80;99.90
56512;DHT22;42408;53.238;5.686;2023-11-22T12:15:24;6.80;99.90
56512;DHT22;42408;53.238;5.686;2023-11-22T12:17:50;6.80;99.90
56512;DHT22;42408;53.238;5.686;2023-11-22T12:20:17;6.80;99.90
56512;DHT22;42408;53.238;5.686;2023-11-22T12:22:49;6.80;99.90
56512;DHT22;42408;53.238;5.686;2023-11-22T12:25:15;6.80;99.90
56512;DHT22;42408;53.238;5.686;2023-11-22T12:27:44;6.70;99.90
56512;DHT22;42408;53.238;5.686;2023-11-22T12:32:54;6.70;99.90
56512;DHT22;42408;53.238;5.686;2023-11-22T12:35:19;6.80;99.90
56512;DHT22;42408;53.238;5.686;2023-11-22T12:37:45;6.70;99.90
56512;DHT22;42408;53.238;5.686;2023-11-22T12:40:12;6.70;99.90
56512;DHT22;42408;53.238;5.686;2023-11-22T12:42:51;6.60;99.90
56512;DHT22;42408;53.238;5.686;2023-11-22T12:45:25;6.60;99.90
56512;DHT22;42408;53.238;5.686;2023-11-22T12:47:51;6.60;99.90
56512;DHT22;42408;53.238;5.686;2023-11-22T12:53:08;6.60;99.90
56512;DHT22;42408;53.238;5.686;2023-11-22T12:55:36;6.60;99.90
56512;DHT22;42408;53.238;5.686;2023-11-22T12:58:02;6.60;99.90
56512;DHT22;42408;53.238;5.686;2023-11-22T13:00:29;6.60;99.90
56512;DHT22;42408;53.238;5.686;2023-11-22T13:02:58;6.60;99.90
56512;DHT22;42408;53.238;5.686;2023-11-22T13:05:24;6.50;99.90
56512;DHT22;42408;53.238;5.686;2023-11-22T13:07:50;6.50;99.90
56512;DHT22;42408;53.238;5.686;2023-11-22T13:10:17;6.50;99.90
56512;DHT22;42408;53.238;5.686;2023-11-22T13:12:45;6.50;99.90
56512;DHT22;42408;53.238;5.686;2023-11-22T13:15:12;6.50;99.90
56512;DHT22;42408;53.238;5.686;2023-11-22T13:17:40;6.50;99.90
56512;DHT22;42408;53.238;5.686;2023-11-22T13:20:09;6.50;99.90
56512;DHT22;42408;53.238;5.686;2023-11-22T13:22:44;6.50;99.90
56512;DHT22;42408;53.238;5.686;2023-11-22T13:25:12;6.50;99.90
56512;DHT22;42408;53.238;5.686;2023-11-22T13:27:42;6.50;99.90
56512;DHT22;42408;53.238;5.686;2023-11-22T13:30:08;6.60;99.90
56512;DHT22;42408;53.238;5.686;2023-11-22T13:32:34;6.60;99.90
56512;DHT22;42408;53.238;5.686;2023-11-22T13:35:01;6.60;99.90
56512;DHT22;42408;53.238;5.686;2023-11-22T13:37:27;6.60;99.90
56512;DHT22;42408;53.238;5.686;2023-11-22T13:39:53;6.70;99.90
56512;DHT22;42408;53.238;5.686;2023-11-22T13:42:18;6.60;99.90
56512;DHT22;42408;53.238;5.686;2023-11-22T13:44:44;6.60;99.90
56512;DHT22;42408;53.238;5.686;2023-11-22T13:47:13;6.60;99.90
56512;DHT22;42408;53.238;5.686;2023-11-22T13:49:39;6.70;99.90
56512;DHT22;42408;53.238;5.686;2023-11-22T13:52:05;6.70;99.90
56512;DHT22;42408;53.238;5.686;2023-11-22T13:54:31;6.60;99.90
56512;DHT22;42408;53.238;5.686;2023-11-22T13:57:00;6.70;99.90
56512;DHT22;42408;53.238;5.686;2023-11-22T13:59:25;6.70;99.90
56512;DHT22;42408;53.238;5.686;2023-11-22T14:01:51;6.60;99.90
56512;DHT22;42408;53.238;5.686;2023-11-22T14:04:17;6.70;99.90
56512;DHT22;42408;53.238;5.686;2023-11-22T14:06:43;6.70;99.90
56512;DHT22;42408;53.238;5.686;2023-11-22T14:09:08;6.60;99.90
56512;DHT22;42408;53.238;5.686;2023-11-22T14:11:34;6.80;99.90
56512;DHT22;42408;53.238;5.686;2023-11-22T14:14:02;6.70;99.90
56512;DHT22;42408;53.238;5.686;2023-11-22T14:16:29;6.70;99.90
56512;DHT22;42408;53.238;5.686;2023-11-22T14:18:56;6.70;99.90
56512;DHT22;42408;53.238;5.686;2023-11-22T14:21:23;6.70;99.90
56512;DHT22;42408;53.238;5.686;2023-11-22T14:23:50;6.70;99.90
56512;DHT22;42408;53.238;5.686;2023-11-22T14:26:16;6.80;99.90
56512;DHT22;42408;53.238;5.686;2023-11-22T14:28:41;6.80;99.90
56512;DHT22;42408;53.238;5.686;2023-11-22T14:31:08;6.70;99.90
56512;DHT22;42408;53.238;5.686;2023-11-22T14:33:34;6.70;99.90
56512;DHT22;42408;53.238;5.686;2023-11-22T14:36:01;6.70;99.90
56512;DHT22;42408;53.238;5.686;2023-11-22T14:38:26;6.70;99.90
56512;DHT22;42408;53.238;5.686;2023-11-22T14:40:52;6.70;99.90
56512;DHT22;42408;53.238;5.686;2023-11-22T14:43:18;6.70;99.90
56512;DHT22;42408;53.238;5.686;2023-11-22T14:45:44;6.70;99.90
56512;DHT22;42408;53.238;5.686;2023-11-22T14:48:09;6.80;99.90
56512;DHT22;42408;53.238;5.686;2023-11-22T14:50:37;6.80;99.90
56512;DHT22;42408;53.238;5.686;2023-11-22T14:53:02;6.90;99.90
56512;DHT22;42408;53.238;5.686;2023-11-22T14:55:28;6.80;99.90
56512;DHT22;42408;53.238;5.686;2023-11-22T14:57:54;6.80;99.90
56512;DHT22;42408;53.238;5.686;2023-11-22T15:00:22;6.90;99.90
56512;DHT22;42408;53.238;5.686;2023-11-22T15:02:48;6.80;99.90
56512;DHT22;42408;53.238;5.686;2023-11-22T15:05:18;6.90;99.90
56512;DHT22;42408;53.238;5.686;2023-11-22T15:07:43;6.80;99.90
56512;DHT22;42408;53.238;5.686;2023-11-22T15:10:10;6.90;99.90
56512;DHT22;42408;53.238;5.686;2023-11-22T15:12:36;6.90;99.90
56512;DHT22;42408;53.238;5.686;2023-11-22T15:15:03;6.90;99.90
56512;DHT22;42408;53.238;5.686;2023-11-22T15:17:28;6.80;99.90
56512;DHT22;42408;53.238;5.686;2023-11-22T15:19:54;6.90;99.90
56512;DHT22;42408;53.238;5.686;2023-11-22T15:22:20;6.90;99.90
56512;DHT22;42408;53.238;5.686;2023-11-22T15:24:46;7.00;99.90
56512;DHT22;42408;53.238;5.686;2023-11-22T15:27:12;6.90;99.90
56512;DHT22;42408;53.238;5.686;2023-11-22T15:29:38;6.90;99.90
56512;DHT22;42408;53.238;5.686;2023-11-22T15:32:03;7.00;99.90
56512;DHT22;42408;53.238;5.686;2023-11-22T15:34:30;7.00;99.90
56512;DHT22;42408;53.238;5.686;2023-11-22T15:36:56;7.00;99.90
56512;DHT22;42408;53.238;5.686;2023-11-22T15:39:23;7.00;99.90
56512;DHT22;42408;53.238;5.686;2023-11-22T15:41:50;6.90;99.90
56512;DHT22;42408;53.238;5.686;2023-11-22T15:44:16;7.00;99.90
56512;DHT22;42408;53.238;5.686;2023-11-22T15:46:42;7.00;99.90
56512;DHT22;42408;53.238;5.686;2023-11-22T15:49:08;6.90;99.90
56512;DHT22;42408;53.238;5.686;2023-11-22T15:51:36;7.00;99.90